Date,TemperatureHighF,TemperatureAvgF,TemperatureLowF,DewpointHighF,DewpointAvgF,DewpointLowF,HumidityHigh,HumidityAvg,HumidityLow,PressureMaxIn,PressureMinIn,WindSpeedMaxMPH,WindSpeedAvgMPH,GustSpeedMaxMPH,PrecipitationSumIn
2013-11-1,64.7,52.4,39.5,60.6,47.0,38.7,98,85,43,29.57,29.15,18,2,25,0.75
2013-11-2,64.6,47.8,34.3,45.4,39.4,31.6,97,75,41,29.58,29.35,11,1,13,0.00
2013-11-3,41.4,35.9,29.9,32.0,20.4,12.8,69,54,38,30.25,29.58,16,4,16,0.00
2013-11-4,41.5,27.8,18.3,18.9,15.6,12.2,91,63,32,30.54,30.25,10,1,0,0.00
2013-11-5,47.5,28.1,16.4,26.0,20.9,14.7,94,77,40,30.55,30.32,11,1,0,0.00
2013-11-6,55.4,37.5,23.5,41.9,32.1,22.2,95,82,55,30.32,29.76,9,1,0,0.00
2013-11-7,53.5,44.5,34.0,51.9,39.8,23.6,96,84,60,29.77,29.46,9,1,0,0.10
2013-11-8,41.9,35.0,25.2,27.5,22.6,18.1,89,61,47,29.81,29.59,22,3,22,0.00
2013-11-9,41.4,35.2,30.1,29.3,22.1,17.9,94,60,41,29.94,29.80,16,2,20,0.00
2013-11-10,35.7,32.6,30.3,34.2,31.4,29.0,97,95,91,29.87,29.53,6,0,0,0.11
2013-11-11,45.4,37.6,28.9,34.6,28.0,24.1,98,69,45,29.84,29.57,18,2,20,0.00
2013-11-12,38.3,30.2,26.2,33.7,17.4,11.7,94,59,45,29.93,29.63,15,3,15,0.00
2013-11-13,33.1,23.5,14.7,14.7,11.8,8.3,86,62,36,30.05,29.88,15,1,15,0.00
2013-11-14,49.9,28.5,18.6,28.7,20.7,14.7,95,75,41,29.90,29.79,5,0,0,0.00
2013-11-15,49.6,29.1,19.6,31.6,23.9,18.2,95,83,44,30.00,29.90,2,0,0,0.00
2013-11-16,58.7,34.0,23.3,32.2,25.1,21.3,93,75,26,30.15,29.99,6,0,0,0.00
2013-11-17,36.7,30.8,21.1,35.9,29.3,19.7,97,94,81,30.17,29.74,2,0,0,0.28
2013-11-18,60.5,46.9,36.7,52.5,37.5,26.6,98,73,44,29.73,29.27,16,2,16,0.65
2013-11-19,45.5,34.4,28.0,28.3,17.3,12.3,73,49,42,30.07,29.37,18,4,18,0.00
2013-11-20,40.2,27.9,16.7,14.8,11.9,6.7,86,53,26,30.46,30.07,12,2,16,0.00
2013-11-21,44.3,25.0,12.4,23.0,16.1,10.5,93,72,32,30.46,30.15,4,0,0,0.00
2013-11-22,35.1,29.9,22.6,32.7,26.8,18.5,97,88,74,30.16,29.57,2,0,0,0.02
2013-11-23,39.3,32.2,23.1,32.2,19.9,11.5,97,62,37,29.64,29.48,19,3,19,0.01
2013-11-24,23.1,18.7,15.7,14.8,3.1,-0.9,74,50,42,29.90,29.52,19,4,23,0.00
2013-11-25,29.5,19.4,9.1,11.7,3.6,-2.3,69,51,28,30.10,29.90,19,1,19,0.00
2013-11-26,30.9,26.1,21.4,26.9,21.8,11.1,95,84,61,30.11,29.96,4,0,0,0.00
2013-11-27,40.7,33.5,28.0,40.1,32.3,26.8,98,96,81,29.96,29.02,8,0,0,1.35
2013-11-28,34.0,23.5,8.8,30.3,12.9,-0.5,96,66,29,30.20,29.11,17,2,17,0.00
2013-11-29,25.5,12.6,2.9,14.1,4.8,0.2,92,73,39,30.55,30.20,13,1,13,0.00
2013-11-30,27.8,14.6,-1.5,19.0,6.6,-4.0,91,73,37,30.62,30.21,9,1,0,0.00